createdAt,value
2023-05-02T00:01:15.847Z,16.38
2023-05-02T00:03:45.758Z,20.88
2023-05-02T00:06:16.040Z,19.58
2023-05-02T00:08:46.061Z,23.75
2023-05-02T00:11:14.580Z,19.13
2023-05-02T00:13:44.204Z,17.95
2023-05-02T00:16:11.506Z,17.70
2023-05-02T00:18:39.909Z,17.02
2023-05-02T00:21:08.659Z,19.25
2023-05-02T00:23:36.952Z,22.10
2023-05-02T00:26:10.509Z,19.70
2023-05-02T00:28:40.498Z,18.13
2023-05-02T00:31:08.577Z,21.20
2023-05-02T00:33:36.875Z,24.85
2023-05-02T00:36:05.591Z,17.15
2023-05-02T00:38:33.822Z,18.92
2023-05-02T00:41:02.170Z,20.38
2023-05-02T00:43:31.658Z,21.42
2023-05-02T00:46:01.032Z,19.17
2023-05-02T00:48:31.247Z,15.98
2023-05-02T00:51:05.630Z,22.20
2023-05-02T00:53:35.846Z,22.50
2023-05-02T00:56:06.572Z,19.10
2023-05-02T00:58:40.994Z,20.77
2023-05-02T01:02:00.816Z,18.98
2023-05-02T01:05:11.379Z,19.92
2023-05-02T01:08:10.951Z,21.13
2023-05-02T01:11:35.401Z,20.13
2023-05-02T01:14:12.470Z,17.88
2023-05-02T01:16:48.685Z,15.77
2023-05-02T01:19:53.004Z,17.70
2023-05-02T01:22:30.545Z,14.77
2023-05-02T01:26:07.677Z,15.52
2023-05-02T01:29:03.549Z,14.98
2023-05-02T01:31:43.720Z,19.25
2023-05-02T01:34:12.897Z,17.50
2023-05-02T01:36:50.564Z,13.80
2023-05-02T01:39:26.988Z,14.30
2023-05-02T01:42:03.938Z,16.23
2023-05-02T01:44:38.427Z,12.77
2023-05-02T01:47:11.447Z,13.10
2023-05-02T01:49:45.168Z,14.40
2023-05-02T01:52:21.905Z,14.20
2023-05-02T01:54:57.930Z,13.68
2023-05-02T01:57:28.290Z,15.25
2023-05-02T02:00:04.193Z,12.10
2023-05-02T02:02:36.988Z,9.73
2023-05-02T02:05:12.322Z,14.27
2023-05-02T02:07:44.802Z,12.07
2023-05-02T02:10:15.391Z,11.30
2023-05-02T02:13:19.817Z,15.05
2023-05-02T02:15:59.803Z,11.02
2023-05-02T02:18:37.857Z,13.95
2023-05-02T02:21:13.531Z,13.93
2023-05-02T02:23:51.553Z,17.02
2023-05-02T02:26:23.899Z,12.88
2023-05-02T02:28:55.205Z,14.18
2023-05-02T02:31:40.030Z,12.00
2023-05-02T02:34:11.317Z,16.23
2023-05-02T02:37:01.880Z,9.40
2023-05-02T02:40:16.727Z,11.43
2023-05-02T02:43:00.423Z,11.77
2023-05-02T02:46:23.032Z,12.80
2023-05-02T02:49:27.293Z,13.32
2023-05-02T02:52:38.324Z,9.68
2023-05-02T02:55:43.082Z,12.57
2023-05-02T02:59:03.514Z,9.82
2023-05-02T03:01:42.040Z,13.60
2023-05-02T03:04:16.795Z,14.82
2023-05-02T03:06:46.908Z,13.57
2023-05-02T03:09:18.905Z,10.80
2023-05-02T03:11:49.045Z,12.27
2023-05-02T03:14:19.173Z,9.82
2023-05-02T03:16:51.969Z,11.23
2023-05-02T03:19:22.098Z,13.48
2023-05-02T03:21:52.190Z,12.85
2023-05-02T03:24:22.442Z,10.75
2023-05-02T03:26:59.539Z,15.52
2023-05-02T03:29:29.661Z,10.38
2023-05-02T03:31:59.890Z,9.18
2023-05-02T03:34:30.167Z,13.15
2023-05-02T03:37:00.359Z,13.15
2023-05-02T03:39:30.476Z,10.45
2023-05-02T03:42:01.884Z,8.95
2023-05-02T03:44:32.036Z,8.63
2023-05-02T03:47:03.293Z,9.60
2023-05-02T03:49:37.030Z,10.60
2023-05-02T03:52:07.265Z,7.85
2023-05-02T03:54:38.020Z,8.25
2023-05-02T03:57:08.989Z,10.38
2023-05-02T03:59:41.839Z,9.45
2023-05-02T04:02:12.572Z,12.55
2023-05-02T04:04:43.717Z,9.90
2023-05-02T04:07:18.549Z,10.20
2023-05-02T04:09:48.657Z,12.02
2023-05-02T04:12:18.914Z,10.88
2023-05-02T04:14:49.054Z,13.68
2023-05-02T04:17:19.200Z,9.98
2023-05-02T04:19:49.528Z,8.73
2023-05-02T04:22:19.654Z,8.73
2023-05-02T04:24:49.790Z,8.68
2023-05-02T04:27:20.002Z,13.50
2023-05-02T04:29:52.681Z,7.10
2023-05-02T04:32:22.986Z,8.43
2023-05-02T04:34:53.176Z,9.15
2023-05-02T04:37:23.567Z,10.05
2023-05-02T04:39:53.686Z,9.05
2023-05-02T04:42:22.121Z,10.10
2023-05-02T04:44:50.848Z,11.13
2023-05-02T04:47:18.917Z,9.65
2023-05-02T04:49:47.385Z,9.43
2023-05-02T04:52:15.845Z,12.63
2023-05-02T04:54:44.439Z,11.15
2023-05-02T04:57:12.642Z,10.23
2023-05-02T04:59:41.055Z,10.55
2023-05-02T05:02:12.902Z,12.05
2023-05-02T05:04:40.967Z,9.13
2023-05-02T05:07:09.344Z,7.38
2023-05-02T05:09:37.767Z,9.23
2023-05-02T05:12:10.550Z,9.70
2023-05-02T05:14:41.486Z,9.93
2023-05-02T05:17:11.646Z,7.55
2023-05-02T05:19:41.829Z,8.57
2023-05-02T05:22:11.973Z,12.02
2023-05-02T05:24:42.059Z,14.93
2023-05-02T05:27:12.492Z,12.30
2023-05-02T05:29:42.623Z,11.70
2023-05-02T05:32:13.066Z,10.30
2023-05-02T05:34:43.299Z,8.07
2023-05-02T05:37:13.549Z,8.88
2023-05-02T05:39:43.659Z,7.85
2023-05-02T05:42:18.407Z,9.93
2023-05-02T05:44:48.540Z,11.18
2023-05-02T05:47:22.438Z,9.02
2023-05-02T05:49:57.200Z,7.65
2023-05-02T05:52:27.799Z,8.90
2023-05-02T05:54:57.967Z,11.15
2023-05-02T05:57:28.063Z,11.82
2023-05-02T05:59:58.259Z,9.65
2023-05-02T06:02:28.647Z,9.02
2023-05-02T06:04:58.985Z,9.38
2023-05-02T06:07:29.354Z,10.07
2023-05-02T06:09:59.589Z,11.98
2023-05-02T06:12:31.291Z,10.60
2023-05-02T06:15:01.976Z,12.50
2023-05-02T06:17:32.611Z,11.70
2023-05-02T06:20:03.031Z,11.57
2023-05-02T06:22:33.367Z,12.73
2023-05-02T06:25:05.363Z,10.95
2023-05-02T06:27:36.084Z,12.95
2023-05-02T06:30:07.740Z,10.68
2023-05-02T06:32:35.350Z,11.90
2023-05-02T06:35:05.735Z,14.07
2023-05-02T06:37:36.091Z,13.75
2023-05-02T06:40:06.670Z,12.55
2023-05-02T06:42:36.163Z,12.70
2023-05-02T06:45:07.164Z,14.05
2023-05-02T06:47:36.501Z,16.17
2023-05-02T06:50:07.675Z,13.45
2023-05-02T06:52:36.353Z,12.30
2023-05-02T06:55:07.070Z,14.57
2023-05-02T06:57:36.781Z,15.30
2023-05-02T07:00:07.550Z,17.88
2023-05-02T07:02:36.836Z,18.50
2023-05-02T07:05:07.222Z,19.00
2023-05-02T07:07:37.133Z,17.27
2023-05-02T07:10:07.660Z,18.83
2023-05-02T07:12:37.635Z,18.92
2023-05-02T07:15:08.807Z,19.20
2023-05-02T07:17:37.320Z,18.23
2023-05-02T07:20:09.307Z,17.40
2023-05-02T07:22:37.795Z,19.48
2023-05-02T07:25:07.958Z,18.25
2023-05-02T07:27:37.567Z,22.60
2023-05-02T07:30:08.629Z,17.45
2023-05-02T07:32:38.716Z,20.92
2023-05-02T07:35:09.711Z,18.00
2023-05-02T07:37:39.054Z,18.30
2023-05-02T07:40:08.170Z,16.52
2023-05-02T07:42:37.456Z,16.50
2023-05-02T07:45:09.098Z,17.98
2023-05-02T07:47:38.103Z,16.95
2023-05-02T07:50:09.491Z,14.80
2023-05-02T07:52:38.689Z,13.70
2023-05-02T07:55:09.214Z,14.68
2023-05-02T07:57:38.967Z,14.25
2023-05-02T08:00:10.404Z,15.15
2023-05-02T08:02:39.663Z,15.38
2023-05-02T08:05:10.130Z,13.75
2023-05-02T08:07:38.068Z,14.85
2023-05-02T08:10:08.827Z,14.52
2023-05-02T08:12:42.717Z,18.23
2023-05-02T08:15:14.015Z,12.32
2023-05-02T08:17:42.005Z,14.15
2023-05-02T08:20:12.640Z,14.65
2023-05-02T08:22:42.485Z,13.98
2023-05-02T08:25:12.210Z,14.40
2023-05-02T08:27:41.879Z,22.10
2023-05-02T08:30:13.207Z,15.88
2023-05-02T08:32:42.525Z,14.30
2023-05-02T08:35:12.586Z,14.65
2023-05-02T08:37:42.870Z,13.23
2023-05-02T08:40:15.219Z,13.80
2023-05-02T08:42:45.500Z,10.95
2023-05-02T08:45:16.858Z,12.18
2023-05-02T08:47:47.946Z,9.18
2023-05-02T08:50:20.011Z,10.90
2023-05-02T08:52:53.472Z,11.90
2023-05-02T08:55:27.923Z,8.68
2023-05-02T08:57:58.855Z,8.40
2023-05-02T09:00:29.320Z,8.70
2023-05-02T09:03:32.828Z,7.47
2023-05-02T09:06:22.883Z,5.93
2023-05-02T09:08:53.622Z,8.18
2023-05-02T09:11:23.706Z,9.18
2023-05-02T09:13:53.864Z,8.43
2023-05-02T09:16:27.457Z,7.75
2023-05-02T09:18:59.490Z,9.63
2023-05-02T09:21:41.441Z,8.73
2023-05-02T09:24:23.082Z,10.25
2023-05-02T09:27:08.256Z,7.13
2023-05-02T09:29:39.167Z,7.57
2023-05-02T09:32:09.794Z,5.82
2023-05-02T09:34:39.954Z,5.82
2023-05-02T09:37:12.760Z,6.93
2023-05-02T09:40:10.306Z,6.00
2023-05-02T09:42:40.442Z,5.82
2023-05-02T09:45:25.532Z,7.47
2023-05-02T09:48:02.952Z,7.38
2023-05-02T09:50:38.522Z,7.38
2023-05-02T09:53:11.427Z,4.93
2023-05-02T09:55:41.579Z,6.40
2023-05-02T09:58:25.784Z,7.38
2023-05-02T10:00:56.088Z,8.90
2023-05-02T10:03:29.872Z,9.77
2023-05-02T10:06:01.490Z,9.57
2023-05-02T10:08:34.601Z,8.40
2023-05-02T10:11:10.103Z,8.00
2023-05-02T10:13:43.923Z,7.70
2023-05-02T10:16:29.275Z,7.85
2023-05-02T10:19:10.650Z,6.47
2023-05-02T10:21:44.315Z,7.22
2023-05-02T10:24:17.213Z,8.93
2023-05-02T10:26:50.083Z,8.80
2023-05-02T10:29:20.269Z,7.40
2023-05-02T10:31:52.121Z,7.15
2023-05-02T10:34:24.024Z,8.75
2023-05-02T10:36:56.761Z,4.90
2023-05-02T10:39:29.491Z,6.80
2023-05-02T10:42:05.296Z,7.68
2023-05-02T10:44:40.650Z,6.15
2023-05-02T10:47:27.664Z,6.13
2023-05-02T10:50:04.983Z,6.18
2023-05-02T10:52:41.347Z,5.88
2023-05-02T10:55:23.842Z,6.15
2023-05-02T10:58:02.615Z,4.85
2023-05-02T11:00:35.017Z,4.93
2023-05-02T11:03:05.462Z,4.70
2023-05-02T11:06:09.980Z,5.20
2023-05-02T11:08:41.912Z,3.85
2023-05-02T11:11:43.798Z,6.00
2023-05-02T11:17:11.826Z,6.95
2023-05-02T11:19:44.885Z,4.60
2023-05-02T11:22:21.104Z,11.02
2023-05-02T11:24:51.894Z,8.10
2023-05-02T11:27:35.831Z,11.15
2023-05-02T11:30:10.033Z,11.50
2023-05-02T11:32:49.825Z,13.25
2023-05-02T11:35:28.288Z,16.45
2023-05-02T11:38:10.138Z,13.90
2023-05-02T11:40:41.337Z,16.17
2023-05-02T11:43:18.668Z,15.00
2023-05-02T11:45:49.696Z,20.05
2023-05-02T11:48:22.839Z,12.07
2023-05-02T11:51:05.575Z,17.33
2023-05-02T11:53:41.776Z,17.15
2023-05-02T11:56:12.135Z,11.63
2023-05-02T11:58:44.211Z,16.00
2023-05-02T12:01:17.516Z,13.23
2023-05-02T12:03:49.682Z,11.15
2023-05-02T12:06:20.469Z,9.70
2023-05-02T12:08:53.635Z,10.52
2023-05-02T12:11:25.005Z,13.80
2023-05-02T12:13:55.645Z,10.55
2023-05-02T12:16:26.110Z,14.65
2023-05-02T12:18:59.687Z,7.38
2023-05-02T12:21:32.943Z,8.35
2023-05-02T12:24:04.210Z,11.50
2023-05-02T12:26:34.485Z,12.10
2023-05-02T12:29:07.832Z,9.82
2023-05-02T12:31:38.119Z,9.35
2023-05-02T12:34:08.292Z,8.35
2023-05-02T12:36:45.614Z,18.02
2023-05-02T12:39:16.510Z,11.10
2023-05-02T12:41:47.485Z,12.50
2023-05-02T12:44:36.528Z,22.30
2023-05-02T12:47:06.308Z,7.50
2023-05-02T12:49:52.785Z,16.38
2023-05-02T12:52:59.395Z,16.17
2023-05-02T12:55:32.431Z,12.23
2023-05-02T12:58:13.636Z,9.68
2023-05-02T13:00:45.744Z,9.75
2023-05-02T13:03:18.000Z,10.20
2023-05-02T13:05:48.159Z,13.98
2023-05-02T13:08:18.293Z,16.90
2023-05-02T13:10:48.377Z,14.63
2023-05-02T13:13:18.508Z,10.80
2023-05-02T13:15:48.881Z,7.95
2023-05-02T13:18:19.128Z,10.40
2023-05-02T13:20:49.402Z,13.65
2023-05-02T13:23:19.645Z,14.00
2023-05-02T13:25:49.800Z,11.43
2023-05-02T13:28:19.910Z,15.13
2023-05-02T13:30:50.062Z,16.20
2023-05-02T13:33:20.182Z,11.30
2023-05-02T13:35:50.281Z,9.98
2023-05-02T13:38:20.551Z,10.63
2023-05-02T13:40:50.917Z,13.82
2023-05-02T13:43:21.249Z,15.57
2023-05-02T13:45:52.549Z,10.63
2023-05-02T13:48:22.960Z,11.07
2023-05-02T13:50:53.110Z,13.13
2023-05-02T13:53:23.234Z,11.13
2023-05-02T13:55:53.347Z,10.75
2023-05-02T13:58:23.535Z,9.40
2023-05-02T14:00:53.666Z,9.43
2023-05-02T14:03:23.969Z,15.18
2023-05-02T14:05:54.126Z,15.57
2023-05-02T14:08:24.295Z,13.77
2023-05-02T14:10:54.396Z,10.25
2023-05-02T14:13:24.883Z,11.27
2023-05-02T14:15:55.498Z,10.55
2023-05-02T14:18:23.498Z,12.35
2023-05-02T14:20:51.943Z,12.63
2023-05-02T14:23:20.909Z,10.55
2023-05-02T14:25:48.736Z,15.23
2023-05-02T14:28:17.110Z,10.80
2023-05-02T14:30:45.699Z,9.95
2023-05-02T14:33:14.232Z,11.05
2023-05-02T14:35:42.914Z,11.02
2023-05-02T14:38:10.878Z,13.85
2023-05-02T14:40:39.315Z,11.38
2023-05-02T14:43:08.522Z,10.18
2023-05-02T14:45:36.111Z,11.52
2023-05-02T14:48:04.737Z,10.57
2023-05-02T14:50:32.953Z,9.10
2023-05-02T14:53:01.386Z,11.23
2023-05-02T14:55:29.891Z,11.10
2023-05-02T14:57:58.723Z,9.40
2023-05-02T15:00:26.667Z,10.55
2023-05-02T15:02:55.274Z,12.57
2023-05-02T15:05:23.544Z,11.38
2023-05-02T15:07:51.965Z,8.65
2023-05-02T15:10:20.510Z,11.02
2023-05-02T15:12:51.040Z,13.00
2023-05-02T15:15:25.273Z,10.00
2023-05-02T15:17:55.551Z,9.63
2023-05-02T15:20:25.958Z,10.25
2023-05-02T15:22:56.169Z,15.63
2023-05-02T15:25:26.395Z,13.43
2023-05-02T15:27:56.722Z,10.25
2023-05-02T15:30:27.163Z,8.30
2023-05-02T15:32:57.372Z,16.27
2023-05-02T15:35:27.573Z,14.15
2023-05-02T15:37:58.010Z,8.30
2023-05-02T15:40:28.619Z,12.30
2023-05-02T15:42:58.866Z,12.55
2023-05-02T15:45:29.020Z,12.63
2023-05-02T15:47:59.169Z,13.13
2023-05-02T15:50:29.303Z,10.85
2023-05-02T15:52:59.464Z,13.13
2023-05-02T15:55:30.763Z,10.88
2023-05-02T15:58:00.979Z,8.63
2023-05-02T16:00:31.293Z,13.30
2023-05-02T16:03:03.927Z,8.95
2023-05-02T16:05:34.458Z,9.20
2023-05-02T16:08:06.201Z,10.32
2023-05-02T16:10:39.270Z,7.47
2023-05-02T16:13:10.205Z,7.75
2023-05-02T16:15:40.517Z,10.27
2023-05-02T16:18:10.831Z,7.22
2023-05-02T16:20:42.263Z,13.40
2023-05-02T16:23:12.392Z,11.30
2023-05-02T16:25:42.525Z,14.05
2023-05-02T16:28:12.705Z,7.90
2023-05-02T16:30:42.805Z,15.30
2023-05-02T16:33:13.926Z,8.30
2023-05-02T16:35:44.052Z,10.65
2023-05-02T16:38:14.281Z,7.50
2023-05-02T16:40:44.488Z,6.07
2023-05-02T16:43:14.645Z,12.00
2023-05-02T16:45:47.112Z,8.25
2023-05-02T16:48:17.315Z,9.88
2023-05-02T16:50:47.450Z,10.68
2023-05-02T16:53:17.568Z,7.38
2023-05-02T16:55:47.696Z,12.15
2023-05-02T16:58:17.824Z,12.32
2023-05-02T17:00:48.084Z,8.70
2023-05-02T17:03:18.367Z,10.70
2023-05-02T17:05:48.553Z,10.23
2023-05-02T17:08:18.661Z,8.50
2023-05-02T17:10:51.560Z,15.43
2023-05-02T17:13:21.879Z,8.05
2023-05-02T17:15:53.786Z,10.65
2023-05-02T17:18:24.485Z,11.48
2023-05-02T17:20:55.360Z,10.43
2023-05-02T17:23:28.726Z,9.82
2023-05-02T17:25:58.967Z,13.07
2023-05-02T17:28:29.182Z,10.40
2023-05-02T17:30:59.576Z,10.45
2023-05-02T17:33:29.905Z,8.18
2023-05-02T17:36:00.067Z,7.63
2023-05-02T17:38:30.509Z,30.65
2023-05-02T17:41:00.623Z,8.77
2023-05-02T17:43:30.794Z,15.18
2023-05-02T17:46:10.242Z,10.95
2023-05-02T17:48:44.503Z,7.85
2023-05-02T17:51:14.653Z,9.68
2023-05-02T17:53:44.305Z,13.20
2023-05-02T17:56:16.409Z,10.23
2023-05-02T17:58:46.276Z,8.80
2023-05-02T18:01:17.775Z,11.32
2023-05-02T18:03:48.321Z,8.18
2023-05-02T18:06:19.151Z,7.70
2023-05-02T18:08:49.369Z,6.55
2023-05-02T18:11:21.260Z,10.52
2023-05-02T18:13:51.616Z,10.07
2023-05-02T18:16:22.050Z,9.35
2023-05-02T18:18:51.811Z,8.10
2023-05-02T18:21:28.195Z,8.40
2023-05-02T18:23:57.039Z,9.85
2023-05-02T18:26:25.911Z,12.88
2023-05-02T18:28:55.857Z,12.07
2023-05-02T18:31:24.365Z,11.68
2023-05-02T18:33:54.886Z,10.60
2023-05-02T18:36:28.954Z,13.40
2023-05-02T18:39:00.412Z,8.05
2023-05-02T18:41:29.641Z,12.07
2023-05-02T18:43:58.645Z,11.93
2023-05-02T18:46:30.363Z,9.50
2023-05-02T18:49:00.486Z,10.18
2023-05-02T18:51:30.494Z,11.10
2023-05-02T18:54:00.501Z,8.40
2023-05-02T18:56:30.434Z,12.13
2023-05-02T18:59:00.308Z,10.95
2023-05-02T19:01:30.354Z,10.05
2023-05-02T19:04:01.123Z,9.93
2023-05-02T19:06:31.686Z,9.32
2023-05-02T19:09:02.022Z,6.47
2023-05-02T19:11:32.183Z,7.80
2023-05-02T19:14:03.739Z,8.98
2023-05-02T19:16:36.170Z,17.08
2023-05-02T19:19:06.069Z,11.70
2023-05-02T19:21:35.480Z,7.47
2023-05-02T19:24:05.714Z,8.48
2023-05-02T19:26:35.850Z,4.78
2023-05-02T19:29:05.915Z,12.57
2023-05-02T19:31:35.818Z,13.73
2023-05-02T19:34:06.160Z,6.85
2023-05-02T19:36:36.316Z,7.63
2023-05-02T19:39:05.973Z,14.25
2023-05-02T19:41:36.502Z,13.90
2023-05-02T19:44:06.137Z,9.68
2023-05-02T19:46:36.334Z,8.13
2023-05-02T19:49:06.287Z,6.78
2023-05-02T19:51:36.160Z,14.05
2023-05-02T19:54:06.135Z,8.00
2023-05-02T19:56:36.370Z,8.23
2023-05-02T19:59:06.702Z,10.45
2023-05-02T20:01:36.102Z,9.98
2023-05-02T20:04:06.075Z,8.57
2023-05-02T20:06:36.599Z,8.73
2023-05-02T20:09:06.519Z,8.73
2023-05-02T20:11:36.282Z,7.15
2023-05-02T20:14:06.177Z,10.38
2023-05-02T20:16:36.097Z,4.47
2023-05-02T20:19:06.195Z,6.63
2023-05-02T20:21:36.258Z,7.72
2023-05-02T20:24:07.180Z,4.72
2023-05-02T20:26:37.510Z,6.60
2023-05-02T20:29:09.994Z,7.95
2023-05-02T20:31:38.102Z,5.28
2023-05-02T20:34:08.206Z,8.48
2023-05-02T20:36:36.858Z,8.15
2023-05-02T20:39:07.574Z,5.13
2023-05-02T20:41:36.866Z,5.50
2023-05-02T20:44:04.981Z,5.25
2023-05-02T20:46:33.375Z,5.97
2023-05-02T20:49:02.397Z,7.57
2023-05-02T20:51:30.435Z,5.60
2023-05-02T20:53:59.455Z,7.13
2023-05-02T20:56:27.087Z,3.72
2023-05-02T20:58:56.809Z,8.20
2023-05-02T21:01:27.109Z,5.18
2023-05-02T21:03:57.482Z,5.43
2023-05-02T21:06:27.771Z,5.43
2023-05-02T21:08:58.553Z,5.80
2023-05-02T21:11:29.918Z,4.22
2023-05-02T21:13:59.838Z,6.72
2023-05-02T21:16:29.683Z,6.93
2023-05-02T21:18:59.554Z,6.70
2023-05-02T21:21:29.288Z,6.97
2023-05-02T21:23:59.088Z,8.98
2023-05-02T21:26:29.261Z,4.43
2023-05-02T21:28:59.153Z,12.95
2023-05-02T21:31:29.602Z,8.55
2023-05-02T21:34:00.847Z,8.27
2023-05-02T21:36:30.054Z,5.53
2023-05-02T21:38:59.838Z,5.90
2023-05-02T21:41:29.808Z,5.18
2023-05-02T21:43:59.427Z,8.35
2023-05-02T21:46:29.251Z,8.88
2023-05-02T21:48:59.161Z,6.18
2023-05-02T21:51:28.954Z,7.75
2023-05-02T21:53:58.778Z,4.43
2023-05-02T21:56:28.533Z,4.43
2023-05-02T21:58:58.375Z,4.28
2023-05-02T22:01:28.215Z,7.45
2023-05-02T22:03:58.239Z,3.88
2023-05-02T22:06:28.726Z,5.70
2023-05-02T22:08:56.753Z,4.72
2023-05-02T22:11:25.702Z,5.65
2023-05-02T22:13:53.842Z,5.05
2023-05-02T22:16:22.172Z,5.35
2023-05-02T22:18:50.709Z,9.52
2023-05-02T22:21:19.040Z,6.00
2023-05-02T22:23:47.299Z,5.03
2023-05-02T22:26:15.872Z,9.55
2023-05-02T22:28:44.283Z,6.90
2023-05-02T22:31:12.666Z,10.18
2023-05-02T22:33:42.900Z,5.55
2023-05-02T22:36:12.869Z,8.38
2023-05-02T22:38:40.976Z,5.70
2023-05-02T22:41:10.069Z,3.75
2023-05-02T22:43:37.791Z,7.97
2023-05-02T22:46:06.284Z,4.30
2023-05-02T22:48:34.670Z,11.40
2023-05-02T22:51:03.220Z,6.60
2023-05-02T22:53:31.524Z,7.28
2023-05-02T22:56:01.554Z,8.57
2023-05-02T22:58:31.309Z,8.88
2023-05-02T23:01:02.232Z,10.43
2023-05-02T23:03:32.162Z,5.65
2023-05-02T23:06:02.269Z,7.38
2023-05-02T23:08:31.971Z,3.95
2023-05-02T23:11:01.679Z,6.97
2023-05-02T23:13:31.769Z,5.65
2023-05-02T23:16:01.590Z,8.07
2023-05-02T23:18:31.907Z,5.55
2023-05-02T23:21:01.534Z,7.90
2023-05-02T23:23:31.964Z,9.65
2023-05-02T23:26:01.522Z,5.30
2023-05-02T23:28:31.423Z,11.52
2023-05-02T23:31:02.938Z,6.50
2023-05-02T23:33:32.913Z,7.63
2023-05-02T23:36:04.087Z,6.25
2023-05-02T23:38:36.302Z,4.75
2023-05-02T23:41:05.900Z,2.97
2023-05-02T23:43:36.039Z,10.35
2023-05-02T23:46:06.477Z,6.80
2023-05-02T23:48:36.550Z,5.40
2023-05-02T23:51:06.435Z,9.35
2023-05-02T23:53:36.178Z,5.43
2023-05-02T23:56:06.964Z,5.80
2023-05-02T23:58:36.933Z,7.15
